Time;durP1;ratioP1;P1;durP2;ratioP2;P2;SDS_P1;SDS_P2;PMS_P1;PMS_P2;Temp;Humidity;BMP_temperature;BMP_pressure;BME280_temperature;BME280_humidity;BME280_pressure;Samples;Min_cycle;Max_cycle;Signal;HPM_P1;HPM_P2
2021/04/03 00:01:55;;;;;;;11.90;4.87;;;;;;;7.17;100.00;103190.92;1867853;76;26208;-76
2021/04/03 00:04:25;;;;;;;9.50;4.40;;;;;;;7.23;100.00;103195.60;1873262;76;26283;-76
2021/04/03 00:06:55;;;;;;;7.67;3.83;;;;;;;7.25;100.00;103193.50;1873209;76;26698;-76
2021/04/03 00:09:25;;;;;;;12.20;4.80;;;;;;;7.24;100.00;103173.82;1873252;76;26255;-76
2021/04/03 00:11:54;;;;;;;14.17;4.93;;;;;;;7.01;100.00;103186.27;1867106;76;26239;-75
2021/04/03 00:14:24;;;;;;;13.67;4.83;;;;;;;6.76;100.00;103190.89;1873316;76;26306;-76
2021/04/03 00:16:54;;;;;;;15.23;5.33;;;;;;;6.88;100.00;103181.52;1871085;76;26228;-76
2021/04/03 00:19:24;;;;;;;13.00;5.47;;;;;;;6.78;100.00;103169.45;1864545;76;26203;-76
2021/04/03 00:21:54;;;;;;;13.33;5.43;;;;;;;6.79;100.00;103172.55;1859828;76;26282;-76
2021/04/03 00:24:24;;;;;;;12.93;5.03;;;;;;;6.94;100.00;103186.22;1866958;76;26238;-76
2021/04/03 00:26:53;;;;;;;13.57;5.50;;;;;;;6.89;100.00;103186.52;1866034;75;26267;-76
2021/04/03 00:29:23;;;;;;;13.30;5.17;;;;;;;6.97;100.00;103175.30;1873193;76;26666;-76
2021/04/03 00:31:53;;;;;;;13.17;4.73;;;;;;;6.96;100.00;103174.97;1873169;76;26208;-75
2021/04/03 00:34:23;;;;;;;18.63;5.73;;;;;;;6.82;100.00;103183.18;1873171;76;26663;-76
2021/04/03 00:36:52;;;;;;;14.60;6.77;;;;;;;6.80;100.00;103181.69;1873271;76;26237;-76
2021/04/03 00:39:22;;;;;;;13.10;5.83;;;;;;;7.02;100.00;103177.75;1873198;76;26266;-75
2021/04/03 00:41:53;;;;;;;16.30;5.67;;;;;;;7.08;100.00;103174.70;1873294;76;26710;-76
2021/04/03 00:44:22;;;;;;;14.70;5.33;;;;;;;6.94;100.00;103180.69;1873212;76;26205;-76
2021/04/03 00:46:52;;;;;;;16.53;5.90;;;;;;;6.94;100.00;103179.83;1873172;76;26694;-75
2021/04/03 00:49:22;;;;;;;16.30;6.13;;;;;;;7.12;100.00;103189.30;1873199;76;26606;-75
2021/04/03 00:51:52;;;;;;;17.57;6.10;;;;;;;7.24;100.00;103180.73;1873236;76;26200;-75
2021/04/03 00:54:22;;;;;;;19.47;5.93;;;;;;;7.32;100.00;103171.39;1873184;76;26189;-76
2021/04/03 00:56:51;;;;;;;15.53;6.20;;;;;;;7.24;100.00;103173.82;1873197;76;26208;-75
2021/04/03 00:59:22;;;;;;;14.23;5.90;;;;;;;7.29;100.00;103188.41;1873284;76;26659;-76
2021/04/03 01:01:52;;;;;;;16.50;6.83;;;;;;;7.25;100.00;103178.30;1873173;76;26204;-76
2021/04/03 01:04:21;;;;;;;15.37;6.37;;;;;;;7.22;100.00;103175.95;1873255;76;26204;-76
2021/04/03 01:06:51;;;;;;;14.73;6.00;;;;;;;7.11;100.00;103180.67;1873169;76;26212;-75
2021/04/03 01:09:21;;;;;;;12.93;5.80;;;;;;;7.16;100.00;103185.59;1873273;76;26208;-76
2021/04/03 01:11:55;;;;;;;17.10;6.03;;;;;;;7.00;100.00;103177.64;1873258;76;26196;-76
2021/04/03 01:14:28;;;;;;;12.07;5.40;;;;;;;6.98;100.00;103175.08;1873040;76;26200;-75
2021/04/03 01:17:01;;;;;;;13.67;5.37;;;;;;;6.97;100.00;103178.06;1873207;76;26213;-75
2021/04/03 01:20:05;;;;;;;13.40;5.43;;;;;;;6.83;100.00;103183.52;1873302;75;26299;-76
2021/04/03 01:22:51;;;;;;;12.47;5.50;;;;;;;6.86;100.00;103186.38;1873353;76;26229;-76
2021/04/03 01:25:22;;;;;;;17.63;6.00;;;;;;;6.96;100.00;103182.73;1872374;75;26208;-76
2021/04/03 01:28:01;;;;;;;15.10;6.30;;;;;;;6.93;100.00;103191.97;1873227;75;26738;-76
2021/04/03 01:30:33;;;;;;;14.73;6.53;;;;;;;7.12;100.00;103181.00;1873403;75;26249;-76
2021/04/03 01:33:05;;;;;;;14.43;6.27;;;;;;;6.98;100.00;103164.55;1873222;76;26212;-76
2021/04/03 01:35:39;;;;;;;17.83;7.33;;;;;;;7.11;100.00;103173.77;1873168;76;26332;-76
2021/04/03 01:38:12;;;;;;;14.20;6.60;;;;;;;7.06;100.00;103170.75;1873155;76;26207;-76
2021/04/03 01:40:42;;;;;;;16.50;6.13;;;;;;;7.15;100.00;103165.37;1872936;75;26294;-76
2021/04/03 01:43:16;;;;;;;19.93;7.20;;;;;;;7.14;100.00;103160.08;1873134;76;26277;-76
2021/04/03 01:45:48;;;;;;;15.00;6.10;;;;;;;7.24;100.00;103163.28;1873102;76;26314;-76
2021/04/03 01:48:20;;;;;;;16.50;6.47;;;;;;;7.34;100.00;103161.00;1873234;76;26208;-75
2021/04/03 01:50:50;;;;;;;13.47;5.77;;;;;;;7.25;100.00;103160.85;1873246;76;26205;-76
2021/04/03 01:53:22;;;;;;;17.90;5.90;;;;;;;7.38;100.00;103153.13;1873212;76;26631;-76
2021/04/03 01:55:54;;;;;;;16.17;6.30;;;;;;;7.43;100.00;103145.08;1873145;76;26684;-76
2021/04/03 01:58:25;;;;;;;16.03;6.00;;;;;;;7.32;100.00;103150.66;1873116;76;26295;-76
2021/04/03 02:00:56;;;;;;;13.87;5.30;;;;;;;7.18;100.00;103151.69;1873126;76;26682;-76
2021/04/03 02:03:26;;;;;;;15.63;5.87;;;;;;;7.32;100.00;103143.22;1873103;76;26536;-76
2021/04/03 02:05:57;;;;;;;15.37;6.00;;;;;;;7.39;100.00;103130.81;1873112;76;26278;-75
2021/04/03 02:08:29;;;;;;;13.37;5.37;;;;;;;7.47;100.00;103129.77;1873106;76;26232;-76
2021/04/03 02:11:03;;;;;;;16.87;6.17;;;;;;;7.42;100.00;103131.77;1873132;76;26220;-76
2021/04/03 02:13:35;;;;;;;14.63;5.67;;;;;;;7.37;100.00;103138.45;1873161;76;26212;-76
2021/04/03 02:16:07;;;;;;;15.43;5.67;;;;;;;7.50;100.00;103132.11;1873155;76;26278;-77
2021/04/03 02:18:39;;;;;;;19.53;5.70;;;;;;;7.48;100.00;103117.13;1873125;76;26243;-76
2021/04/03 02:21:10;;;;;;;16.57;5.83;;;;;;;7.57;100.00;103119.16;1873144;76;26281;-76
2021/04/03 02:23:39;;;;;;;13.30;5.43;;;;;;;7.48;100.00;103117.66;1873210;76;26220;-77
2021/04/03 02:26:10;;;;;;;17.50;5.93;;;;;;;7.59;100.00;103122.03;1873199;76;26212;-77
2021/04/03 02:28:40;;;;;;;15.57;5.60;;;;;;;7.56;100.00;103118.30;1873114;75;26255;-76
2021/04/03 02:31:10;;;;;;;16.70;5.87;;;;;;;7.59;100.00;103125.32;1873109;76;26192;-77
2021/04/03 02:33:40;;;;;;;13.07;5.33;;;;;;;7.60;100.00;103117.35;1873146;76;26678;-77
2021/04/03 02:36:10;;;;;;;14.83;4.87;;;;;;;7.49;100.00;103117.42;1873118;76;26205;-76
2021/04/03 02:38:40;;;;;;;14.40;5.30;;;;;;;7.51;100.00;103115.31;1873200;76;26750;-76
2021/04/03 02:41:10;;;;;;;15.10;5.33;;;;;;;7.61;100.00;103113.53;1873142;76;26201;-76
2021/04/03 02:43:46;;;;;;;12.83;5.90;;;;;;;7.43;100.00;103117.42;1873108;76;26270;-76
2021/04/03 02:46:20;;;;;;;15.47;5.77;;;;;;;7.57;100.00;103119.16;1873201;76;26204;-76
2021/04/03 02:48:53;;;;;;;19.37;5.43;;;;;;;7.67;100.00;103114.91;1873244;76;26196;-76
2021/04/03 02:51:27;;;;;;;16.27;4.97;;;;;;;7.71;100.00;103117.57;1873231;76;26196;-76
2021/04/03 02:53:58;;;;;;;12.23;6.07;;;;;;;7.58;100.00;103124.98;1873112;76;26336;-76
2021/04/03 02:56:30;;;;;;;14.90;6.33;;;;;;;7.59;100.00;103126.70;1873143;76;26211;-76
2021/04/03 02:59:02;;;;;;;17.63;6.57;;;;;;;7.56;100.00;103128.52;1873209;76;26301;-76
2021/04/03 03:01:34;;;;;;;16.07;5.80;;;;;;;7.59;100.00;103126.17;1873210;76;26204;-76
2021/04/03 03:04:05;;;;;;;15.37;6.20;;;;;;;7.58;100.00;103131.91;1873070;76;26236;-76
2021/04/03 03:06:36;;;;;;;15.23;6.43;;;;;;;7.51;100.00;103125.52;1873084;76;26200;-76
2021/04/03 03:09:07;;;;;;;12.97;6.30;;;;;;;7.57;100.00;103118.60;1873123;76;26197;-76
2021/04/03 03:11:38;;;;;;;15.40;6.10;;;;;;;7.58;100.00;103114.78;1873101;76;26271;-76
2021/04/03 03:14:09;;;;;;;14.77;6.30;;;;;;;7.45;100.00;103116.14;1873118;76;26244;-75
2021/04/03 03:16:40;;;;;;;17.40;6.93;;;;;;;7.44;100.00;103105.30;1873109;76;26212;-77
2021/04/03 03:19:10;;;;;;;15.10;5.67;;;;;;;7.54;100.00;103111.27;1873119;76;26212;-76
2021/04/03 03:21:41;;;;;;;13.17;5.40;;;;;;;7.50;100.00;103105.30;1873101;76;26213;-77
2021/04/03 03:24:12;;;;;;;15.13;5.33;;;;;;;7.45;100.00;103113.90;1873118;76;26235;-76
2021/04/03 03:26:43;;;;;;;21.50;5.13;;;;;;;7.55;100.00;103098.62;1873051;76;26216;-76
2021/04/03 03:29:14;;;;;;;14.60;4.20;;;;;;;7.57;100.00;103098.42;1872988;75;26263;-76
2021/04/03 03:31:44;;;;;;;13.63;4.60;;;;;;;7.42;100.00;103102.73;1873210;76;26204;-76
2021/04/03 03:34:14;;;;;;;14.67;4.23;;;;;;;7.44;100.00;103103.40;1873083;76;26211;-76
2021/04/03 03:36:45;;;;;;;9.17;3.57;;;;;;;7.48;100.00;103108.83;1873060;76;26703;-76
2021/04/03 03:39:16;;;;;;;11.40;3.40;;;;;;;7.57;100.00;103100.63;1873300;76;26308;-76
2021/04/03 03:41:47;;;;;;;11.20;3.53;;;;;;;7.52;100.00;103094.05;1873088;76;26223;-76
2021/04/03 03:44:17;;;;;;;12.03;4.13;;;;;;;7.46;100.00;103094.87;1873076;76;26252;-76
2021/04/03 03:46:47;;;;;;;15.40;4.13;;;;;;;7.45;100.00;103103.69;1873152;76;26345;-76
2021/04/03 03:49:34;;;;;;;12.97;4.00;;;;;;;7.46;100.00;103105.41;1768811;81;33306;-77
2021/04/03 03:52:05;;;;;;;16.97;5.17;;;;;;;7.54;100.00;103107.11;1769120;81;26264;-77
2021/04/03 03:54:35;;;;;;;18.20;3.93;;;;;;;7.64;100.00;103103.42;1769177;81;26253;-77
2021/04/03 03:57:07;;;;;;;16.13;4.03;;;;;;;7.60;100.00;103097.46;1769136;81;26299;-78
2021/04/03 03:59:36;;;;;;;9.87;3.30;;;;;;;7.56;100.00;103100.33;1769345;81;26335;-77
2021/04/03 04:02:06;;;;;;;14.20;4.00;;;;;;;7.51;100.00;103103.39;1757805;80;930583;-77
2021/04/03 04:04:36;;;;;;;13.03;3.30;;;;;;;7.48;100.00;103104.68;1769180;81;26724;-76
2021/04/03 04:07:07;;;;;;;14.27;3.90;;;;;;;7.52;100.00;103105.96;1769158;81;26277;-76
2021/04/03 04:09:37;;;;;;;13.60;3.63;;;;;;;7.55;100.00;103111.06;1769145;81;26705;-76
2021/04/03 04:12:09;;;;;;;10.23;2.83;;;;;;;7.51;100.00;103104.78;1769345;81;26354;-76
2021/04/03 04:14:39;;;;;;;16.07;3.60;;;;;;;7.50;100.00;103096.16;1769142;81;26316;-77
2021/04/03 04:17:09;;;;;;;12.60;3.37;;;;;;;7.45;100.00;103106.98;1769114;81;26310;-76
2021/04/03 04:19:39;;;;;;;15.50;4.17;;;;;;;7.46;100.00;103112.84;1769095;81;26311;-76
2021/04/03 04:22:09;;;;;;;13.53;3.77;;;;;;;7.50;100.00;103116.89;1872999;76;26200;-76
2021/04/03 04:24:39;;;;;;;14.77;3.63;;;;;;;7.62;100.00;103107.77;1873114;76;26675;-76
2021/04/03 04:27:10;;;;;;;14.10;3.80;;;;;;;7.53;100.00;103113.73;1879449;76;26285;-76
2021/04/03 04:29:40;;;;;;;15.93;4.13;;;;;;;7.47;100.00;103125.62;1868729;75;26345;-77
2021/04/03 04:32:10;;;;;;;17.63;3.97;;;;;;;7.48;100.00;103117.13;1873128;76;26204;-76
2021/04/03 04:34:40;;;;;;;19.37;3.03;;;;;;;7.49;100.00;103117.95;1866768;76;26278;-76
2021/04/03 04:37:09;;;;;;;16.40;3.50;;;;;;;7.43;100.00;103122.95;1870887;76;26685;-76
2021/04/03 04:39:39;;;;;;;10.90;2.83;;;;;;;7.38;100.00;103120.81;1864460;76;26278;-76
2021/04/03 04:42:09;;;;;;;16.80;2.67;;;;;;;7.47;100.00;103125.09;1872450;76;26199;-77
2021/04/03 04:44:39;;;;;;;10.60;2.77;;;;;;;7.42;100.00;103126.24;1873375;76;26306;-77
2021/04/03 04:47:09;;;;;;;15.20;3.07;;;;;;;7.36;100.00;103122.09;1866880;76;26184;-77
2021/04/03 04:49:39;;;;;;;13.53;3.27;;;;;;;7.33;100.00;103130.25;1867080;76;26278;-76
2021/04/03 04:52:09;;;;;;;16.57;3.60;;;;;;;7.41;100.00;103127.83;1867017;76;26196;-77
2021/04/03 04:54:39;;;;;;;10.93;3.00;;;;;;;7.38;100.00;103131.02;1873249;76;26208;-77
2021/04/03 04:57:10;;;;;;;15.83;3.17;;;;;;;7.46;100.00;103134.44;1873142;76;26274;-76
2021/04/03 04:59:40;;;;;;;10.83;2.50;;;;;;;7.42;100.00;103146.13;1863261;76;26736;-76
2021/04/03 05:02:09;;;;;;;12.97;2.77;;;;;;;7.37;100.00;103138.45;1864688;76;26229;-76
2021/04/03 05:04:39;;;;;;;15.17;2.70;;;;;;;7.43;100.00;103144.55;1869856;76;26208;-76
2021/04/03 05:07:09;;;;;;;14.97;3.47;;;;;;;7.43;100.00;103146.45;1864378;76;26200;-75
2021/04/03 05:09:39;;;;;;;10.43;2.20;;;;;;;7.38;100.00;103147.08;1873159;76;26282;-76
2021/04/03 05:12:11;;;;;;;11.50;3.07;;;;;;;7.39;100.00;103138.26;1861053;76;26262;-76
2021/04/03 05:14:41;;;;;;;9.93;3.10;;;;;;;7.43;100.00;103147.31;1867203;76;26636;-76
2021/04/03 05:17:11;;;;;;;8.73;2.20;;;;;;;7.43;100.00;103144.55;1873215;76;26200;-76
2021/04/03 05:19:41;;;;;;;12.17;3.20;;;;;;;7.51;100.00;103147.64;1873277;76;26671;-76
2021/04/03 05:22:11;;;;;;;13.00;3.20;;;;;;;7.51;100.00;103151.27;1873200;76;26205;-76
2021/04/03 05:24:40;;;;;;;11.97;2.63;;;;;;;7.48;100.00;103150.31;1866915;76;26655;-76
2021/04/03 05:27:10;;;;;;;13.70;2.83;;;;;;;7.42;100.00;103155.80;1866892;76;26271;-76
2021/04/03 05:29:40;;;;;;;17.97;2.73;;;;;;;7.39;100.00;103152.94;1866840;75;26266;-76
2021/04/03 05:32:11;;;;;;;10.63;2.67;;;;;;;7.51;100.00;103147.12;1862512;76;26273;-76
2021/04/03 05:34:41;;;;;;;13.60;2.40;;;;;;;7.45;100.00;103149.84;1865564;76;26204;-76
2021/04/03 05:37:10;;;;;;;11.47;2.67;;;;;;;7.51;100.00;103151.27;1862802;76;26277;-76
2021/04/03 05:39:40;;;;;;;10.23;2.57;;;;;;;7.48;100.00;103159.98;1871382;76;26620;-76
2021/04/03 05:42:12;;;;;;;9.90;2.53;;;;;;;7.47;100.00;103158.28;1873235;76;26211;-76
2021/04/03 05:44:43;;;;;;;11.87;2.77;;;;;;;7.55;100.00;103164.14;1866484;76;26628;-77
2021/04/03 05:47:14;;;;;;;12.40;2.97;;;;;;;7.48;100.00;103170.19;1867856;76;26205;-77
2021/04/03 05:49:44;;;;;;;13.77;2.87;;;;;;;7.50;100.00;103168.91;1866552;76;26221;-76
2021/04/03 05:52:14;;;;;;;10.40;2.70;;;;;;;7.48;100.00;103173.81;1858110;76;26196;-76
2021/04/03 05:54:44;;;;;;;13.13;2.83;;;;;;;7.50;100.00;103177.73;1864451;76;26286;-77
2021/04/03 05:57:14;;;;;;;11.73;2.53;;;;;;;7.52;100.00;103183.40;1873148;76;26212;-77
2021/04/03 05:59:45;;;;;;;12.20;3.13;;;;;;;7.48;100.00;103183.50;1873136;76;26204;-77
2021/04/03 06:02:15;;;;;;;14.87;2.93;;;;;;;7.47;100.00;103183.69;1873193;76;26233;-76
2021/04/03 06:04:45;;;;;;;9.17;2.47;;;;;;;7.48;100.00;103197.84;1866891;76;26197;-77
2021/04/03 06:07:16;;;;;;;8.67;2.57;;;;;;;7.52;100.00;103204.67;1873199;76;26679;-77
2021/04/03 06:09:47;;;;;;;13.73;2.20;;;;;;;7.51;100.00;103187.75;1873099;76;26652;-77
2021/04/03 06:12:21;;;;;;;10.43;2.80;;;;;;;7.44;100.00;103195.18;1866996;76;26270;-77
2021/04/03 06:14:51;;;;;;;13.97;2.97;;;;;;;7.50;100.00;103200.72;1873933;75;26216;-77
2021/04/03 06:17:25;;;;;;;11.30;2.83;;;;;;;7.50;100.00;103194.33;1864815;76;26663;-77
2021/04/03 06:19:55;;;;;;;11.17;3.20;;;;;;;7.47;100.00;103197.52;1864422;76;26212;-77
2021/04/03 06:22:25;;;;;;;13.50;2.97;;;;;;;7.51;100.00;103199.66;1872875;76;26262;-77
2021/04/03 06:25:06;;;;;;;15.60;2.60;;;;;;;7.54;100.00;103200.63;1873271;76;26663;-78
2021/04/03 06:27:35;;;;;;;12.40;2.40;;;;;;;7.50;100.00;103208.16;1867010;76;26219;-76
2021/04/03 06:30:15;;;;;;;12.30;2.37;;;;;;;7.56;100.00;103210.96;1873236;76;26219;-78
2021/04/03 06:32:47;;;;;;;10.70;3.43;;;;;;;7.60;100.00;103223.84;1869707;76;26274;-77
2021/04/03 06:35:23;;;;;;;11.90;2.73;;;;;;;7.61;100.00;103218.11;1864684;76;26188;-79
2021/04/03 06:37:53;;;;;;;10.00;2.50;;;;;;;7.67;100.00;103213.64;1862557;76;26205;-76
2021/04/03 06:40:23;;;;;;;12.23;2.80;;;;;;;7.57;100.00;103222.33;1867647;76;26210;-76
2021/04/03 06:42:57;;;;;;;11.57;2.53;;;;;;;7.58;100.00;103225.95;1867860;76;26659;-77
2021/04/03 06:45:32;;;;;;;11.90;2.83;;;;;;;7.59;100.00;103226.28;1860584;76;26277;-76
2021/04/03 06:48:04;;;;;;;13.37;2.80;;;;;;;7.58;100.00;103228.71;1869536;76;26734;-77
2021/04/03 06:50:37;;;;;;;14.10;2.93;;;;;;;7.61;100.00;103221.41;1872917;76;26666;-77
2021/04/03 06:53:09;;;;;;;13.33;2.70;;;;;;;7.60;100.00;103221.93;1863447;76;26225;-77
2021/04/03 06:55:40;;;;;;;11.87;2.37;;;;;;;7.63;100.00;103232.58;1874772;76;26237;-77
2021/04/03 06:58:12;;;;;;;10.70;3.30;;;;;;;7.66;100.00;103226.61;1875144;76;26225;-77
2021/04/03 07:00:42;;;;;;;17.73;3.00;;;;;;;7.78;100.00;103224.97;1875012;76;26323;-77
2021/04/03 07:03:18;;;;;;;12.63;2.60;;;;;;;7.66;100.00;103235.44;1864285;76;26224;-77
2021/04/03 07:05:48;;;;;;;14.20;2.93;;;;;;;7.78;100.00;103229.66;1867256;76;26200;-77
2021/04/03 07:08:19;;;;;;;11.60;2.60;;;;;;;7.76;100.00;103224.84;1874736;76;27119;-77
2021/04/03 07:10:50;;;;;;;12.87;2.37;;;;;;;7.81;100.00;103232.52;1868084;76;26224;-77
2021/04/03 07:13:22;;;;;;;15.47;2.87;;;;;;;7.87;100.00;103233.94;1868170;76;26658;-78
2021/04/03 07:15:54;;;;;;;14.77;3.73;;;;;;;7.89;100.00;103241.48;1874121;76;26420;-78
2021/04/03 07:18:25;;;;;;;10.30;2.20;;;;;;;7.88;100.00;103237.53;1873780;76;26211;-77
2021/04/03 07:20:56;;;;;;;13.90;2.93;;;;;;;7.90;100.00;103240.42;1873403;76;26270;-77
2021/04/03 07:23:26;;;;;;;13.60;3.00;;;;;;;7.90;100.00;103236.80;1873194;76;26220;-80
2021/04/03 07:26:00;;;;;;;12.40;3.27;;;;;;;7.93;100.00;103241.38;1873235;76;26212;-78
2021/04/03 07:28:38;;;;;;;17.17;2.63;;;;;;;8.00;100.00;103240.86;1869090;76;26212;-78
2021/04/03 07:31:09;;;;;;;12.10;2.60;;;;;;;8.07;100.00;103247.28;1872224;75;26675;-78
2021/04/03 07:33:50;;;;;;;13.10;2.57;;;;;;;7.98;100.00;103242.14;1868775;76;26235;-77
2021/04/03 07:36:37;;;;;;;9.27;2.30;;;;;;;8.01;100.00;103242.56;1870908;76;26679;-77
2021/04/03 07:39:10;;;;;;;12.03;2.90;;;;;;;7.98;100.00;103237.98;1871839;76;26274;-76
2021/04/03 07:41:42;;;;;;;14.03;3.23;;;;;;;8.06;100.00;103244.70;1864308;75;26306;-77
2021/04/03 07:44:15;;;;;;;10.97;2.47;;;;;;;8.06;100.00;103251.10;1873197;76;26667;-78
2021/04/03 07:46:47;;;;;;;9.93;2.60;;;;;;;8.17;100.00;103239.95;1873227;76;26224;-80
2021/04/03 07:49:34;;;;;;;10.93;2.97;;;;;;;8.12;100.00;103247.50;1865528;76;26231;-79
2021/04/03 07:52:05;;;;;;;12.10;2.73;;;;;;;8.33;100.00;103240.09;1864584;76;26220;-80
2021/04/03 07:54:34;;;;;;;12.40;2.53;;;;;;;8.26;100.00;103243.37;1861103;76;26702;-80
2021/04/03 07:57:07;;;;;;;11.77;2.37;;;;;;;8.15;100.00;103244.83;1873319;76;26663;-81
2021/04/03 07:59:54;;;;;;;12.50;2.90;;;;;;;8.20;100.00;103241.77;1873183;76;26279;-79
2021/04/03 08:02:26;;;;;;;11.83;2.70;;;;;;;8.31;100.00;103244.45;1873202;76;26232;-77
2021/04/03 08:04:57;;;;;;;10.83;2.37;;;;;;;8.24;100.00;103250.49;1866844;76;26279;-77
2021/04/03 08:07:28;;;;;;;11.93;2.50;;;;;;;8.24;100.00;103254.64;1866770;76;26718;-80
2021/04/03 08:09:58;;;;;;;7.70;2.47;;;;;;;8.17;100.00;103254.63;1873146;76;26208;-78
2021/04/03 08:12:29;;;;;;;9.17;2.33;;;;;;;8.14;100.00;103261.11;1866226;76;26296;-79
2021/04/03 08:15:00;;;;;;;10.20;2.53;;;;;;;8.12;100.00;103259.96;1864497;76;26325;-80
2021/04/03 08:17:30;;;;;;;13.80;2.63;;;;;;;8.22;100.00;103258.14;1865217;76;26634;-78
2021/04/03 08:20:02;;;;;;;11.00;2.23;;;;;;;8.26;100.00;103266.34;1873195;76;26220;-81
2021/04/03 08:22:31;;;;;;;8.57;2.30;;;;;;;8.19;100.00;103265.50;1866918;76;26634;-78
2021/04/03 08:25:03;;;;;;;11.10;2.70;;;;;;;8.28;100.00;103268.39;1873293;76;26248;-79
2021/04/03 08:27:38;;;;;;;10.37;2.23;;;;;;;8.22;100.00;103266.45;1873205;76;26290;-78
2021/04/03 08:30:23;;;;;;;12.53;3.23;;;;;;;8.28;100.00;103277.22;1863214;76;26228;-77
2021/04/03 08:33:12;;;;;;;13.10;2.63;;;;;;;8.34;100.00;103282.83;1866295;75;26259;-79
2021/04/03 08:35:44;;;;;;;13.13;2.87;;;;;;;8.38;100.00;103290.17;1873293;76;26208;-76
2021/04/03 08:38:17;;;;;;;12.03;2.90;;;;;;;8.38;100.00;103286.02;1873176;76;26216;-78
2021/04/03 08:40:49;;;;;;;9.23;3.07;;;;;;;8.37;100.00;103287.08;1860688;76;26654;-78
2021/04/03 08:43:21;;;;;;;7.90;2.50;;;;;;;8.43;100.00;103284.86;1873407;76;26960;-78
2021/04/03 08:45:53;;;;;;;10.43;2.80;;;;;;;8.35;100.00;103283.12;1866918;76;26266;-78
2021/04/03 08:48:23;;;;;;;13.57;2.67;;;;;;;8.37;100.00;103296.23;1869452;76;26212;-78
2021/04/03 08:50:54;;;;;;;10.83;2.43;;;;;;;8.45;100.00;103284.95;1871115;76;26292;-77
2021/04/03 08:53:25;;;;;;;11.87;2.77;;;;;;;8.48;100.00;103286.44;1863474;76;26209;-80
2021/04/03 08:55:55;;;;;;;10.03;2.73;;;;;;;8.56;100.00;103281.53;1864406;76;26204;-77
2021/04/03 08:58:25;;;;;;;12.00;2.57;;;;;;;8.60;100.00;103286.14;1861283;76;26662;-78
2021/04/03 09:00:55;;;;;;;9.67;2.00;;;;;;;8.61;100.00;103285.06;1873293;76;26212;-78
2021/04/03 09:03:25;;;;;;;9.77;1.90;;;;;;;8.78;100.00;103286.33;1866960;76;26765;-79
2021/04/03 09:05:55;;;;;;;12.70;2.80;;;;;;;8.71;100.00;103287.41;1867791;76;26677;-79
2021/04/03 09:08:26;;;;;;;10.73;2.23;;;;;;;8.61;100.00;103287.83;1873429;76;26244;-77
2021/04/03 09:10:57;;;;;;;10.87;2.53;;;;;;;8.74;100.00;103281.43;1866969;76;26220;-77
2021/04/03 09:13:34;;;;;;;11.27;2.27;;;;;;;8.82;100.00;103290.38;1866913;76;26216;-78
2021/04/03 09:16:12;;;;;;;10.90;2.73;;;;;;;8.74;100.00;103295.28;1873231;76;26220;-77
2021/04/03 09:18:44;;;;;;;6.80;2.30;;;;;;;8.79;100.00;103279.73;1873245;76;26709;-76
2021/04/03 09:21:21;;;;;;;6.67;2.33;;;;;;;8.83;100.00;103276.84;1866996;76;26204;-78
2021/04/03 09:23:53;;;;;;;7.13;2.40;;;;;;;8.79;100.00;103284.42;1873496;76;26204;-77
2021/04/03 09:26:34;;;;;;;11.43;2.73;;;;;;;8.86;100.00;103285.25;1866225;76;26207;-76
2021/04/03 09:29:09;;;;;;;8.33;2.53;;;;;;;8.87;100.00;103274.50;1864388;76;26295;-78
2021/04/03 09:31:46;;;;;;;9.60;2.40;;;;;;;8.92;100.00;103273.32;1872653;76;26236;-77
2021/04/03 09:34:18;;;;;;;8.20;2.33;;;;;;;8.80;100.00;103273.13;1873177;75;26820;-78
2021/04/03 09:36:50;;;;;;;10.60;2.20;;;;;;;8.93;100.00;103271.73;1864438;76;26619;-77
2021/04/03 09:39:21;;;;;;;11.00;3.00;;;;;;;9.00;100.00;103267.55;1864024;76;26244;-76
2021/04/03 09:41:53;;;;;;;7.07;2.03;;;;;;;8.94;100.00;103260.94;1871086;76;26192;-77
2021/04/03 09:44:23;;;;;;;9.20;2.30;;;;;;;9.14;100.00;103267.32;1870329;76;26647;-76
2021/04/03 09:46:53;;;;;;;6.63;2.03;;;;;;;9.15;100.00;103272.34;1866940;76;26204;-77
2021/04/03 09:49:23;;;;;;;14.50;2.80;;;;;;;9.20;100.00;103263.36;1873197;76;26279;-79
2021/04/03 09:51:52;;;;;;;10.10;2.10;;;;;;;9.35;100.00;103259.25;1866955;76;26698;-77
2021/04/03 09:54:22;;;;;;;5.97;1.80;;;;;;;9.26;100.00;103263.33;1873235;76;26325;-77
2021/04/03 09:56:52;;;;;;;8.43;2.23;;;;;;;9.28;100.00;103270.91;1873272;76;26278;-77
2021/04/03 09:59:22;;;;;;;11.03;2.43;;;;;;;9.25;100.00;103271.33;1873194;76;26682;-77
2021/04/03 10:01:52;;;;;;;6.97;2.40;;;;;;;9.35;100.00;103266.19;1860774;76;26608;-77
2021/04/03 10:04:22;;;;;;;9.80;2.20;;;;;;;9.44;100.00;103264.88;1873133;76;26352;-76
2021/04/03 10:06:56;;;;;;;8.10;2.23;;;;;;;9.45;100.00;103267.13;1873209;76;26700;-77
2021/04/03 10:09:26;;;;;;;10.80;2.73;;;;;;;9.57;100.00;103269.00;1867034;76;26274;-76
2021/04/03 10:11:57;;;;;;;8.77;2.40;;;;;;;9.58;100.00;103270.67;1866956;76;26228;-78
2021/04/03 10:14:27;;;;;;;5.57;2.00;;;;;;;9.72;100.00;103266.45;1873167;76;26196;-78
2021/04/03 10:16:57;;;;;;;9.33;2.53;;;;;;;9.60;100.00;103261.61;1866880;76;26214;-78
2021/04/03 10:19:27;;;;;;;9.50;2.60;;;;;;;9.62;100.00;103269.73;1873393;76;26307;-77
2021/04/03 10:21:58;;;;;;;8.37;2.40;;;;;;;9.52;100.00;103278.51;1873273;76;26278;-78
2021/04/03 10:24:28;;;;;;;13.50;2.20;;;;;;;9.46;100.00;103277.98;1873272;76;26613;-78
2021/04/03 10:26:58;;;;;;;11.20;2.37;;;;;;;9.44;100.00;103273.73;1873196;76;26274;-78
2021/04/03 10:29:28;;;;;;;8.97;2.53;;;;;;;9.40;100.00;103278.02;1873143;76;26697;-77
2021/04/03 10:31:58;;;;;;;12.63;2.67;;;;;;;9.59;100.00;103278.47;1873370;76;26308;-77
2021/04/03 10:34:27;;;;;;;6.87;1.97;;;;;;;9.61;100.00;103279.11;1871207;75;26248;-76
2021/04/03 10:36:57;;;;;;;8.50;2.57;;;;;;;9.57;100.00;103279.23;1869499;76;26624;-77
2021/04/03 10:39:27;;;;;;;10.97;2.50;;;;;;;9.56;100.00;103280.30;1873177;76;26414;-78
2021/04/03 10:41:57;;;;;;;9.57;2.40;;;;;;;9.74;100.00;103279.06;1868784;76;26201;-78
2021/04/03 10:44:26;;;;;;;9.03;2.30;;;;;;;9.88;100.00;103287.62;1864527;76;26691;-79
2021/04/03 10:46:56;;;;;;;13.27;2.87;;;;;;;9.73;100.00;103287.06;1868579;76;26270;-78
2021/04/03 10:49:28;;;;;;;11.77;2.40;;;;;;;9.72;100.00;103289.52;1873298;76;26204;-78
2021/04/03 10:51:58;;;;;;;13.03;2.80;;;;;;;9.63;100.00;103285.84;1866961;76;26286;-78
2021/04/03 10:54:28;;;;;;;12.13;3.17;;;;;;;9.75;100.00;103291.88;1873182;76;26244;-78
2021/04/03 10:56:58;;;;;;;9.10;2.43;;;;;;;9.87;100.00;103294.80;1873139;76;26213;-78
2021/04/03 10:59:27;;;;;;;10.03;2.27;;;;;;;10.10;100.00;103290.92;1866802;76;26200;-78
2021/04/03 11:01:57;;;;;;;6.70;2.20;;;;;;;10.14;100.00;103296.91;1873101;76;26189;-78
2021/04/03 11:04:27;;;;;;;9.37;2.30;;;;;;;10.02;100.00;103293.42;1866975;76;26632;-80
2021/04/03 11:06:57;;;;;;;8.67;2.63;;;;;;;9.97;100.00;103295.16;1867041;76;26200;-79
2021/04/03 11:09:26;;;;;;;14.37;3.17;;;;;;;9.98;100.00;103293.55;1866853;76;26185;-78
2021/04/03 11:11:56;;;;;;;15.00;3.00;;;;;;;9.98;100.00;103292.17;1864865;76;26669;-78
2021/04/03 11:14:26;;;;;;;8.90;2.70;;;;;;;10.23;100.00;103289.48;1869483;76;26197;-78
2021/04/03 11:16:56;;;;;;;9.80;3.17;;;;;;;10.23;100.00;103294.19;1873135;76;26672;-78
2021/04/03 11:19:26;;;;;;;9.00;2.77;;;;;;;10.45;100.00;103285.81;1866955;76;26628;-78
2021/04/03 11:21:56;;;;;;;9.50;2.40;;;;;;;10.30;100.00;103292.23;1873151;76;26271;-78
2021/04/03 11:24:26;;;;;;;12.37;2.60;;;;;;;10.28;100.00;103286.89;1866896;76;26237;-78
2021/04/03 11:26:56;;;;;;;8.80;2.43;;;;;;;10.23;100.00;103282.54;1872338;76;26189;-78
2021/04/03 11:29:25;;;;;;;11.20;3.47;;;;;;;10.30;100.00;103288.07;1864560;76;26200;-78
2021/04/03 11:31:55;;;;;;;9.47;2.23;;;;;;;10.36;100.00;103284.37;1858594;76;26697;-78
2021/04/03 11:34:25;;;;;;;10.53;2.67;;;;;;;10.32;100.00;103287.29;1869868;75;26293;-79
2021/04/03 11:36:55;;;;;;;11.00;2.63;;;;;;;10.34;100.00;103292.95;1864326;76;26762;-78
2021/04/03 11:39:25;;;;;;;14.27;3.33;;;;;;;10.42;100.00;103282.09;1873293;76;26628;-78